BWA481 KFLL-TTPP
Flight info
| Callsign | BWA481 |
|---|---|
| Flight time | 3h 13m |
| Altitude | 39000 |
| Route | SNAPR2 SUMAC Y421 HARBG L452 ANADA UG449 PERGA DCT ITRAK DCT NAPKO DCT LEXOR DCT TALUS DCT |
| Aircraft | B38M/M-SDE1FGHILORVWXY/HB1 |
Departure
| Time | 2026-05-04 18:53 |
|---|---|
| Airport | Fort Lauderdale Hollywood International Airport (KFLL) |
Arrival
| Time | 2026-05-04 22:06 |
|---|---|
| Airport | Piarco International Airport (TTPP) |
| Time | Latitude | Longitude | Altitude | Speed | Heading |
|---|---|---|---|---|---|
| 2026-05-04 18:17 | 26.07384 | -80.13644 | 18 ft | 0 kts | 104° |
| 2026-05-04 18:32 | 26.07389 | -80.13664 | 18 ft | 4 kts | 104° |
| 2026-05-04 18:32 | 26.07394 | -80.13687 | 18 ft | 4 kts | 107° |
| 2026-05-04 18:32 | 26.07405 | -80.13706 | 18 ft | 4 kts | 170° |
| 2026-05-04 18:33 | 26.07428 | -80.13711 | 18 ft | 4 kts | 145° |
| 2026-05-04 18:33 | 26.07436 | -80.13727 | 18 ft | 4 kts | 62° |
| 2026-05-04 18:33 | 26.07420 | -80.13735 | 18 ft | 4 kts | 0° |
| 2026-05-04 18:33 | 26.07405 | -80.13735 | 18 ft | 1 kts | 0° |
| 2026-05-04 18:37 | 26.07406 | -80.13735 | 18 ft | 1 kts | 1° |
| 2026-05-04 18:37 | 26.07430 | -80.13735 | 18 ft | 8 kts | 1° |
| 2026-05-04 18:37 | 26.07514 | -80.13743 | 18 ft | 16 kts | 305° |
| 2026-05-04 18:38 | 26.07535 | -80.13901 | 18 ft | 26 kts | 296° |
| 2026-05-04 18:38 | 26.07558 | -80.14108 | 19 ft | 26 kts | 270° |
| 2026-05-04 18:38 | 26.07558 | -80.14314 | 19 ft | 27 kts | 271° |
| 2026-05-04 18:38 | 26.07559 | -80.14529 | 19 ft | 29 kts | 271° |
| 2026-05-04 18:39 | 26.07559 | -80.14703 | 19 ft | 22 kts | 266° |
| 2026-05-04 18:39 | 26.07561 | -80.14883 | 19 ft | 24 kts | 269° |
| 2026-05-04 18:39 | 26.07546 | -80.15072 | 18 ft | 25 kts | 241° |
| 2026-05-04 18:39 | 26.07490 | -80.15254 | 18 ft | 26 kts | 270° |
| 2026-05-04 18:40 | 26.07491 | -80.15457 | 18 ft | 27 kts | 270° |
| 2026-05-04 18:40 | 26.07493 | -80.15672 | 18 ft | 28 kts | 270° |
| 2026-05-04 18:40 | 26.07494 | -80.15893 | 18 ft | 29 kts | 270° |
| 2026-05-04 18:40 | 26.07495 | -80.16119 | 18 ft | 23 kts | 270° |
| 2026-05-04 18:41 | 26.07495 | -80.16278 | 18 ft | 21 kts | 270° |
| 2026-05-04 18:41 | 26.07497 | -80.16446 | 18 ft | 22 kts | 269° |
| 2026-05-04 18:41 | 26.07496 | -80.16587 | 18 ft | 9 kts | 271° |
| 2026-05-04 18:41 | 26.07513 | -80.16634 | 18 ft | 4 kts | 325° |
| 2026-05-04 18:42 | 26.07515 | -80.16635 | 18 ft | 0 kts | 330° |
| 2026-05-04 18:47 | 26.07523 | -80.16638 | 18 ft | 3 kts | 341° |
| 2026-05-04 18:47 | 26.07569 | -80.16643 | 21 ft | 10 kts | 1° |
| 2026-05-04 18:47 | 26.07587 | -80.16643 | 19 ft | 0 kts | 1° |
| 2026-05-04 18:48 | 26.07588 | -80.16643 | 19 ft | 1 kts | 1° |
| 2026-05-04 18:48 | 26.07607 | -80.16642 | 19 ft | 7 kts | 1° |
| 2026-05-04 18:48 | 26.07677 | -80.16639 | 21 ft | 11 kts | 19° |
| 2026-05-04 18:49 | 26.07695 | -80.16593 | 20 ft | 0 kts | 89° |
| 2026-05-04 18:52 | 26.07695 | -80.16592 | 22 ft | 1 kts | 89° |
| 2026-05-04 18:52 | 26.07695 | -80.16472 | 22 ft | 43 kts | 89° |
| 2026-05-04 18:52 | 26.07692 | -80.15899 | 21 ft | 103 kts | 90° |
| 2026-05-04 18:53 | 26.07686 | -80.14911 | 23 ft | 149 kts | 90° |
| 2026-05-04 18:53 | 26.07678 | -80.13702 | 365 ft | 159 kts | 90° |
| 2026-05-04 18:53 | 26.07668 | -80.12407 | 761 ft | 173 kts | 90° |
| 2026-05-04 18:53 | 26.07675 | -80.11111 | 1447 ft | 165 kts | 89° |
| 2026-05-04 18:54 | 26.07710 | -80.09811 | 1971 ft | 177 kts | 88° |
| 2026-05-04 18:54 | 26.07743 | -80.08367 | 2339 ft | 199 kts | 88° |
| 2026-05-04 18:54 | 26.07771 | -80.06718 | 2638 ft | 227 kts | 88° |
| 2026-05-04 18:54 | 26.07796 | -80.04880 | 3112 ft | 247 kts | 88° |
| 2026-05-04 18:55 | 26.07815 | -80.02911 | 3734 ft | 259 kts | 88° |
| 2026-05-04 18:55 | 26.07812 | -79.98843 | 5308 ft | 271 kts | 90° |
| 2026-05-04 18:55 | 26.07791 | -79.96727 | 6091 ft | 277 kts | 90° |
| 2026-05-04 18:56 | 26.07771 | -79.94574 | 6917 ft | 280 kts | 90° |
| 2026-05-04 18:56 | 26.07750 | -79.92383 | 7595 ft | 287 kts | 90° |
| 2026-05-04 18:56 | 26.07727 | -79.90145 | 8295 ft | 292 kts | 90° |
| 2026-05-04 18:56 | 26.07705 | -79.87869 | 8985 ft | 297 kts | 91° |
| 2026-05-04 18:57 | 26.07681 | -79.85551 | 9663 ft | 302 kts | 91° |
| 2026-05-04 18:57 | 26.07634 | -79.83219 | 10284 ft | 311 kts | 96° |
| 2026-05-04 18:57 | 26.07192 | -79.80822 | 10739 ft | 323 kts | 105° |
| 2026-05-04 18:57 | 26.06641 | -79.78354 | 11236 ft | 335 kts | 105° |
| 2026-05-04 18:58 | 26.06084 | -79.75808 | 11901 ft | 341 kts | 105° |
| 2026-05-04 18:58 | 26.05523 | -79.73216 | 12599 ft | 347 kts | 105° |
| 2026-05-04 18:58 | 26.04955 | -79.70588 | 13303 ft | 353 kts | 105° |
| 2026-05-04 18:58 | 26.04378 | -79.67914 | 14000 ft | 358 kts | 105° |
| 2026-05-04 18:59 | 26.03792 | -79.65210 | 14688 ft | 362 kts | 106° |
| 2026-05-04 18:59 | 26.03152 | -79.62480 | 15368 ft | 368 kts | 107° |
| 2026-05-04 18:59 | 26.02501 | -79.59710 | 16060 ft | 372 kts | 107° |
| 2026-05-04 18:59 | 26.01845 | -79.56908 | 16733 ft | 377 kts | 107° |
| 2026-05-04 19:00 | 26.01180 | -79.54067 | 17376 ft | 382 kts | 107° |
| 2026-05-04 19:00 | 26.00507 | -79.51188 | 17991 ft | 387 kts | 107° |
| 2026-05-04 19:00 | 25.99823 | -79.48274 | 18608 ft | 392 kts | 107° |
| 2026-05-04 19:00 | 25.99133 | -79.45333 | 19249 ft | 395 kts | 107° |
| 2026-05-04 19:01 | 25.98436 | -79.42364 | 19804 ft | 399 kts | 107° |
| 2026-05-04 19:01 | 25.97731 | -79.39370 | 20367 ft | 402 kts | 108° |
| 2026-05-04 19:01 | 25.96804 | -79.36429 | 20878 ft | 404 kts | 114° |
| 2026-05-04 19:01 | 25.95805 | -79.33492 | 21406 ft | 408 kts | 113° |
| 2026-05-04 19:02 | 25.94818 | -79.30523 | 21908 ft | 412 kts | 112° |
| 2026-05-04 19:02 | 25.93828 | -79.27521 | 22419 ft | 414 kts | 112° |
| 2026-05-04 19:02 | 25.92839 | -79.24504 | 22867 ft | 419 kts | 112° |
| 2026-05-04 19:02 | 25.91840 | -79.21452 | 23329 ft | 421 kts | 112° |
| 2026-05-04 19:03 | 25.90832 | -79.18378 | 23813 ft | 424 kts | 112° |
| 2026-05-04 19:03 | 25.89817 | -79.15288 | 24276 ft | 428 kts | 112° |
| 2026-05-04 19:03 | 25.88796 | -79.12176 | 24718 ft | 431 kts | 112° |
| 2026-05-04 19:03 | 25.87764 | -79.09033 | 25107 ft | 435 kts | 112° |
| 2026-05-04 19:04 | 25.86723 | -79.05869 | 25524 ft | 438 kts | 112° |
| 2026-05-04 19:04 | 25.85674 | -79.02682 | 25930 ft | 441 kts | 112° |
| 2026-05-04 19:04 | 25.84617 | -78.99474 | 26277 ft | 445 kts | 112° |
| 2026-05-04 19:04 | 25.83548 | -78.96234 | 26638 ft | 448 kts | 112° |
| 2026-05-04 19:05 | 25.82475 | -78.92980 | 26992 ft | 451 kts | 112° |
| 2026-05-04 19:05 | 25.81393 | -78.89703 | 27326 ft | 455 kts | 112° |
| 2026-05-04 19:05 | 25.80300 | -78.86395 | 27688 ft | 457 kts | 112° |
| 2026-05-04 19:05 | 25.79187 | -78.83034 | 28027 ft | 460 kts | 112° |
| 2026-05-04 19:06 | 25.78094 | -78.79726 | 28314 ft | 463 kts | 112° |
| 2026-05-04 19:06 | 25.76977 | -78.76364 | 28652 ft | 466 kts | 112° |
| 2026-05-04 19:06 | 25.75857 | -78.72985 | 28939 ft | 469 kts | 112° |
| 2026-05-04 19:06 | 25.74726 | -78.69582 | 29277 ft | 471 kts | 112° |
| 2026-05-04 19:07 | 25.73576 | -78.66116 | 29541 ft | 475 kts | 112° |
| 2026-05-04 19:07 | 25.72430 | -78.62669 | 29856 ft | 477 kts | 112° |
| 2026-05-04 19:07 | 25.71279 | -78.59214 | 30113 ft | 480 kts | 112° |
| 2026-05-04 19:07 | 25.70116 | -78.55725 | 30390 ft | 482 kts | 112° |
| 2026-05-04 19:08 | 25.68955 | -78.52247 | 30690 ft | 484 kts | 113° |
| 2026-05-04 19:08 | 25.67786 | -78.48741 | 31002 ft | 485 kts | 113° |
| 2026-05-04 19:08 | 25.66613 | -78.45231 | 31272 ft | 487 kts | 113° |
| 2026-05-04 19:08 | 25.65432 | -78.41702 | 31559 ft | 488 kts | 113° |
| 2026-05-04 19:09 | 25.64251 | -78.38171 | 31833 ft | 490 kts | 114° |
| 2026-05-04 19:09 | 25.63062 | -78.34622 | 32087 ft | 492 kts | 114° |
| 2026-05-04 19:09 | 25.61866 | -78.31059 | 32368 ft | 494 kts | 114° |
| 2026-05-04 19:09 | 25.60673 | -78.27493 | 32642 ft | 494 kts | 114° |
| 2026-05-04 19:10 | 25.59471 | -78.23922 | 32924 ft | 495 kts | 114° |
| 2026-05-04 19:10 | 25.58265 | -78.20339 | 33179 ft | 498 kts | 114° |
| 2026-05-04 19:10 | 25.57054 | -78.16740 | 33402 ft | 499 kts | 115° |
| 2026-05-04 19:10 | 25.55841 | -78.13141 | 33672 ft | 500 kts | 115° |
| 2026-05-04 19:11 | 25.54622 | -78.09528 | 33927 ft | 501 kts | 115° |
| 2026-05-04 19:11 | 25.53400 | -78.05907 | 34171 ft | 503 kts | 115° |
| 2026-05-04 19:11 | 25.52169 | -78.02272 | 34401 ft | 505 kts | 115° |
| 2026-05-04 19:11 | 25.50938 | -77.98625 | 34622 ft | 507 kts | 115° |
| 2026-05-04 19:12 | 25.49699 | -77.94962 | 34831 ft | 509 kts | 115° |
| 2026-05-04 19:12 | 25.47201 | -77.87591 | 35210 ft | 513 kts | 115° |
| 2026-05-04 19:12 | 25.45946 | -77.83894 | 35475 ft | 513 kts | 115° |
| 2026-05-04 19:13 | 25.44688 | -77.80191 | 35720 ft | 514 kts | 116° |
| 2026-05-04 19:13 | 25.43429 | -77.76491 | 35975 ft | 513 kts | 116° |
| 2026-05-04 19:13 | 25.42173 | -77.72798 | 36217 ft | 514 kts | 116° |
| 2026-05-04 19:13 | 25.40909 | -77.69090 | 36379 ft | 517 kts | 116° |
| 2026-05-04 19:14 | 25.39640 | -77.65371 | 36616 ft | 516 kts | 116° |
| 2026-05-04 19:14 | 25.38373 | -77.61658 | 36864 ft | 516 kts | 116° |
| 2026-05-04 19:14 | 25.37110 | -77.57961 | 37163 ft | 514 kts | 116° |
| 2026-05-04 19:14 | 25.35848 | -77.54271 | 37411 ft | 512 kts | 116° |
| 2026-05-04 19:15 | 25.34588 | -77.50588 | 37680 ft | 511 kts | 116° |
| 2026-05-04 19:15 | 25.33330 | -77.46911 | 37815 ft | 512 kts | 116° |
| 2026-05-04 19:15 | 25.32063 | -77.43220 | 37929 ft | 514 kts | 116° |
| 2026-05-04 19:15 | 25.30799 | -77.39535 | 38123 ft | 513 kts | 117° |
| 2026-05-04 19:16 | 25.29525 | -77.35907 | 38230 ft | 511 kts | 121° |
| 2026-05-04 19:16 | 25.27760 | -77.32574 | 38384 ft | 497 kts | 133° |
| 2026-05-04 19:16 | 25.25861 | -77.29357 | 38432 ft | 503 kts | 129° |
| 2026-05-04 19:16 | 25.24001 | -77.26082 | 38544 ft | 503 kts | 130° |
| 2026-05-04 19:17 | 25.22120 | -77.22823 | 38696 ft | 504 kts | 130° |
| 2026-05-04 19:17 | 25.20226 | -77.19567 | 38816 ft | 504 kts | 130° |
| 2026-05-04 19:17 | 25.18324 | -77.16308 | 38900 ft | 506 kts | 131° |
| 2026-05-04 19:17 | 25.16421 | -77.13051 | 39036 ft | 504 kts | 131° |
| 2026-05-04 19:18 | 25.14519 | -77.09795 | 39067 ft | 506 kts | 131° |
| 2026-05-04 19:18 | 25.10706 | -77.03275 | 39038 ft | 505 kts | 131° |
| 2026-05-04 19:19 | 25.06888 | -76.96762 | 39042 ft | 506 kts | 131° |
| 2026-05-04 19:19 | 25.03067 | -76.90246 | 39051 ft | 506 kts | 131° |
| 2026-05-04 19:20 | 24.99244 | -76.83737 | 39057 ft | 505 kts | 131° |
| 2026-05-04 19:20 | 24.95414 | -76.77228 | 39045 ft | 506 kts | 131° |
| 2026-05-04 19:21 | 24.91586 | -76.70731 | 39031 ft | 506 kts | 131° |
| 2026-05-04 19:21 | 24.87753 | -76.64226 | 39094 ft | 507 kts | 131° |
| 2026-05-04 19:22 | 24.83905 | -76.57715 | 39042 ft | 506 kts | 131° |
| 2026-05-04 19:22 | 24.80058 | -76.51211 | 39033 ft | 508 kts | 131° |
| 2026-05-04 19:23 | 24.76208 | -76.44709 | 39039 ft | 507 kts | 131° |
| 2026-05-04 19:23 | 24.72356 | -76.38214 | 39065 ft | 507 kts | 131° |
| 2026-05-04 19:24 | 24.68500 | -76.31721 | 39040 ft | 506 kts | 131° |
| 2026-05-04 19:24 | 24.64642 | -76.25234 | 39035 ft | 508 kts | 131° |
| 2026-05-04 19:25 | 24.60772 | -76.18733 | 39037 ft | 508 kts | 131° |
| 2026-05-04 19:25 | 24.56966 | -76.12188 | 39043 ft | 510 kts | 128° |
| 2026-05-04 19:26 | 24.53284 | -76.05536 | 39006 ft | 509 kts | 129° |
| 2026-05-04 19:26 | 24.49572 | -75.98908 | 39033 ft | 511 kts | 129° |
| 2026-05-04 19:27 | 24.45856 | -75.92276 | 39036 ft | 510 kts | 129° |
| 2026-05-04 19:27 | 24.42138 | -75.85651 | 39040 ft | 510 kts | 129° |
| 2026-05-04 19:28 | 24.38415 | -75.79028 | 39034 ft | 510 kts | 129° |
| 2026-05-04 19:28 | 24.34680 | -75.72392 | 39036 ft | 511 kts | 129° |
| 2026-05-04 19:29 | 24.30948 | -75.65767 | 39045 ft | 510 kts | 129° |
| 2026-05-04 19:29 | 24.27215 | -75.59155 | 39032 ft | 510 kts | 129° |
| 2026-05-04 19:30 | 24.24117 | -75.53668 | 39049 ft | 509 kts | 129° |
| 2026-05-04 19:30 | 24.20386 | -75.47072 | 39036 ft | 509 kts | 129° |
| 2026-05-04 19:31 | 24.16649 | -75.40481 | 39028 ft | 509 kts | 129° |
| 2026-05-04 19:31 | 24.12312 | -75.32831 | 39038 ft | 508 kts | 129° |
| 2026-05-04 19:32 | 24.09184 | -75.27324 | 39039 ft | 508 kts | 129° |
| 2026-05-04 19:32 | 24.05444 | -75.20748 | 39029 ft | 509 kts | 129° |
| 2026-05-04 19:33 | 24.01703 | -75.14181 | 39038 ft | 509 kts | 129° |
| 2026-05-04 19:33 | 23.97962 | -75.07619 | 39037 ft | 509 kts | 129° |
| 2026-05-04 19:34 | 23.94218 | -75.01065 | 39028 ft | 507 kts | 129° |
| 2026-05-04 19:34 | 23.90479 | -74.94524 | 39030 ft | 508 kts | 129° |
| 2026-05-04 19:35 | 23.86737 | -74.87987 | 39032 ft | 507 kts | 129° |
| 2026-05-04 19:35 | 23.83020 | -74.81502 | 39042 ft | 507 kts | 129° |
| 2026-05-04 19:36 | 23.79274 | -74.74973 | 39016 ft | 506 kts | 129° |
| 2026-05-04 19:36 | 23.75533 | -74.68468 | 39042 ft | 507 kts | 129° |
| 2026-05-04 19:37 | 23.71782 | -74.61952 | 39062 ft | 507 kts | 129° |
| 2026-05-04 19:37 | 23.68026 | -74.55433 | 39020 ft | 505 kts | 129° |
| 2026-05-04 19:38 | 23.64272 | -74.48930 | 39033 ft | 508 kts | 129° |
| 2026-05-04 19:38 | 23.60516 | -74.42428 | 39053 ft | 506 kts | 129° |
| 2026-05-04 19:39 | 23.56756 | -74.35927 | 39037 ft | 506 kts | 129° |
| 2026-05-04 19:39 | 23.52990 | -74.29429 | 39029 ft | 507 kts | 129° |
| 2026-05-04 19:40 | 23.49230 | -74.22941 | 39044 ft | 507 kts | 129° |
| 2026-05-04 19:40 | 23.45462 | -74.16462 | 39050 ft | 507 kts | 129° |
| 2026-05-04 19:41 | 23.41687 | -74.09963 | 39028 ft | 507 kts | 129° |
| 2026-05-04 19:41 | 23.37914 | -74.03481 | 39012 ft | 507 kts | 129° |
| 2026-05-04 19:42 | 23.34136 | -73.97003 | 39010 ft | 507 kts | 129° |
| 2026-05-04 19:42 | 23.30361 | -73.90537 | 39034 ft | 506 kts | 128° |
| 2026-05-04 19:43 | 23.26595 | -73.84087 | 39019 ft | 505 kts | 128° |
| 2026-05-04 19:43 | 23.22824 | -73.77649 | 39034 ft | 504 kts | 128° |
| 2026-05-04 19:44 | 23.19076 | -73.71250 | 39029 ft | 505 kts | 128° |
| 2026-05-04 19:44 | 23.15312 | -73.64836 | 39032 ft | 503 kts | 128° |
| 2026-05-04 19:45 | 23.11541 | -73.58417 | 39004 ft | 504 kts | 128° |
| 2026-05-04 19:45 | 23.07770 | -73.52005 | 39031 ft | 504 kts | 128° |
| 2026-05-04 19:46 | 23.04009 | -73.45612 | 39009 ft | 502 kts | 128° |
| 2026-05-04 19:46 | 23.00238 | -73.39219 | 39011 ft | 503 kts | 128° |
| 2026-05-04 19:47 | 22.96471 | -73.32840 | 39017 ft | 502 kts | 128° |
| 2026-05-04 19:47 | 22.92703 | -73.26464 | 39026 ft | 502 kts | 128° |
| 2026-05-04 19:48 | 22.88932 | -73.20093 | 39014 ft | 502 kts | 128° |
| 2026-05-04 19:48 | 22.85158 | -73.13724 | 39011 ft | 502 kts | 128° |
| 2026-05-04 19:49 | 22.81390 | -73.07367 | 38988 ft | 501 kts | 128° |
| 2026-05-04 19:49 | 22.77618 | -73.01022 | 39041 ft | 500 kts | 128° |
| 2026-05-04 19:50 | 22.73840 | -72.94669 | 38997 ft | 501 kts | 128° |
| 2026-05-04 19:50 | 22.70065 | -72.88333 | 39015 ft | 502 kts | 128° |
| 2026-05-04 19:51 | 22.66293 | -72.82002 | 39009 ft | 499 kts | 128° |
| 2026-05-04 19:51 | 22.62519 | -72.75678 | 38998 ft | 500 kts | 128° |
| 2026-05-04 19:52 | 22.58766 | -72.69399 | 38978 ft | 500 kts | 128° |
| 2026-05-04 19:52 | 22.54994 | -72.63095 | 38994 ft | 499 kts | 128° |
| 2026-05-04 19:53 | 22.51223 | -72.56799 | 38994 ft | 499 kts | 128° |
| 2026-05-04 19:53 | 22.47440 | -72.50491 | 39023 ft | 500 kts | 128° |
| 2026-05-04 19:54 | 22.43658 | -72.44190 | 39017 ft | 498 kts | 128° |
| 2026-05-04 19:54 | 22.39878 | -72.37904 | 38994 ft | 499 kts | 128° |
| 2026-05-04 19:55 | 22.36093 | -72.31617 | 38995 ft | 499 kts | 128° |
| 2026-05-04 19:55 | 22.32310 | -72.25338 | 39014 ft | 498 kts | 128° |
| 2026-05-04 19:56 | 22.28526 | -72.19067 | 38995 ft | 497 kts | 128° |
| 2026-05-04 19:56 | 22.24741 | -72.12801 | 39005 ft | 499 kts | 127° |
| 2026-05-04 19:57 | 22.20948 | -72.06523 | 38997 ft | 499 kts | 127° |
| 2026-05-04 19:57 | 22.17157 | -72.00265 | 38993 ft | 498 kts | 127° |
| 2026-05-04 19:58 | 22.13363 | -71.94007 | 39001 ft | 498 kts | 128° |
| 2026-05-04 19:58 | 22.09571 | -71.87758 | 38997 ft | 498 kts | 128° |
| 2026-05-04 19:59 | 22.05774 | -71.81508 | 38993 ft | 498 kts | 128° |
| 2026-05-04 19:59 | 22.01978 | -71.75267 | 39004 ft | 498 kts | 127° |
| 2026-05-04 20:00 | 21.98177 | -71.69023 | 39003 ft | 498 kts | 128° |
| 2026-05-04 20:00 | 21.94378 | -71.62791 | 38996 ft | 499 kts | 128° |
| 2026-05-04 20:01 | 21.90575 | -71.56563 | 38998 ft | 496 kts | 128° |
| 2026-05-04 20:01 | 21.86780 | -71.50352 | 38994 ft | 496 kts | 127° |
| 2026-05-04 20:02 | 21.82988 | -71.44152 | 38992 ft | 496 kts | 127° |
| 2026-05-04 20:02 | 21.79199 | -71.37963 | 38994 ft | 495 kts | 127° |
| 2026-05-04 20:03 | 21.75406 | -71.31774 | 39017 ft | 496 kts | 128° |
| 2026-05-04 20:03 | 21.71614 | -71.25596 | 38964 ft | 494 kts | 127° |
| 2026-05-04 20:04 | 21.67826 | -71.19429 | 38994 ft | 495 kts | 127° |
| 2026-05-04 20:04 | 21.64037 | -71.13269 | 38976 ft | 493 kts | 127° |
| 2026-05-04 20:05 | 21.60251 | -71.07122 | 38988 ft | 493 kts | 127° |
| 2026-05-04 20:05 | 21.56218 | -71.01208 | 39000 ft | 487 kts | 135° |
| 2026-05-04 20:06 | 21.51778 | -70.95685 | 38983 ft | 488 kts | 135° |
| 2026-05-04 20:06 | 21.47342 | -70.90189 | 38977 ft | 487 kts | 135° |
| 2026-05-04 20:07 | 21.42926 | -70.84719 | 38987 ft | 487 kts | 135° |
| 2026-05-04 20:07 | 21.38491 | -70.79236 | 38986 ft | 487 kts | 135° |
| 2026-05-04 20:08 | 21.34050 | -70.73749 | 38993 ft | 487 kts | 135° |
| 2026-05-04 20:08 | 21.29610 | -70.68269 | 38992 ft | 487 kts | 135° |
| 2026-05-04 20:09 | 21.25167 | -70.62792 | 39006 ft | 486 kts | 135° |
| 2026-05-04 20:09 | 21.20726 | -70.57321 | 38976 ft | 486 kts | 135° |
| 2026-05-04 20:10 | 21.16283 | -70.51856 | 38977 ft | 486 kts | 135° |
| 2026-05-04 20:10 | 21.11837 | -70.46390 | 38986 ft | 486 kts | 135° |
| 2026-05-04 20:11 | 21.07399 | -70.40938 | 38978 ft | 485 kts | 135° |
| 2026-05-04 20:11 | 21.02957 | -70.35492 | 38966 ft | 485 kts | 135° |
| 2026-05-04 20:12 | 20.98517 | -70.30049 | 38978 ft | 486 kts | 135° |
| 2026-05-04 20:12 | 20.94077 | -70.24614 | 38968 ft | 484 kts | 135° |
| 2026-05-04 20:13 | 20.89637 | -70.19182 | 38982 ft | 485 kts | 135° |
| 2026-05-04 20:13 | 20.85199 | -70.13758 | 38964 ft | 484 kts | 134° |
| 2026-05-04 20:14 | 20.80755 | -70.08334 | 38971 ft | 485 kts | 134° |
| 2026-05-04 20:14 | 20.76316 | -70.02922 | 38962 ft | 484 kts | 135° |
| 2026-05-04 20:15 | 20.71874 | -69.97507 | 38965 ft | 485 kts | 134° |
| 2026-05-04 20:15 | 20.67429 | -69.92098 | 38995 ft | 483 kts | 134° |
| 2026-05-04 20:16 | 20.62995 | -69.86706 | 38951 ft | 483 kts | 134° |
| 2026-05-04 20:16 | 20.58559 | -69.81315 | 38975 ft | 483 kts | 134° |
| 2026-05-04 20:17 | 20.54865 | -69.76835 | 38954 ft | 483 kts | 134° |
| 2026-05-04 20:17 | 20.50428 | -69.71454 | 38960 ft | 483 kts | 134° |
| 2026-05-04 20:18 | 20.45988 | -69.66077 | 38951 ft | 483 kts | 134° |
| 2026-05-04 20:18 | 20.41547 | -69.60698 | 38969 ft | 484 kts | 134° |
| 2026-05-04 20:19 | 20.37102 | -69.55321 | 38973 ft | 483 kts | 134° |
| 2026-05-04 20:19 | 20.32660 | -69.49954 | 38966 ft | 482 kts | 134° |
| 2026-05-04 20:20 | 20.28219 | -69.44594 | 38967 ft | 483 kts | 134° |
| 2026-05-04 20:20 | 20.23772 | -69.39231 | 38988 ft | 483 kts | 134° |
| 2026-05-04 20:21 | 20.19326 | -69.33875 | 38980 ft | 483 kts | 134° |
| 2026-05-04 20:21 | 20.12650 | -69.25841 | 38987 ft | 483 kts | 134° |
| 2026-05-04 20:22 | 20.08204 | -69.20497 | 38994 ft | 483 kts | 134° |
| 2026-05-04 20:22 | 20.03758 | -69.15159 | 38978 ft | 481 kts | 134° |
| 2026-05-04 20:23 | 19.99314 | -69.09827 | 38971 ft | 482 kts | 134° |
| 2026-05-04 20:23 | 19.94869 | -69.04498 | 38982 ft | 481 kts | 134° |
| 2026-05-04 20:24 | 19.90438 | -68.99190 | 38978 ft | 480 kts | 134° |
| 2026-05-04 20:24 | 19.86136 | -68.93835 | 38975 ft | 480 kts | 129° |
| 2026-05-04 20:25 | 19.82074 | -68.88195 | 38956 ft | 481 kts | 130° |
| 2026-05-04 20:25 | 19.77970 | -68.82605 | 38992 ft | 480 kts | 130° |
| 2026-05-04 20:26 | 19.73861 | -68.77028 | 38978 ft | 479 kts | 130° |
| 2026-05-04 20:26 | 19.69751 | -68.71455 | 38966 ft | 479 kts | 130° |
| 2026-05-04 20:27 | 19.65642 | -68.65887 | 38980 ft | 480 kts | 130° |
| 2026-05-04 20:27 | 19.61533 | -68.60325 | 38962 ft | 478 kts | 130° |
| 2026-05-04 20:28 | 19.57427 | -68.54771 | 38988 ft | 479 kts | 130° |
| 2026-05-04 20:28 | 19.53321 | -68.49222 | 38997 ft | 478 kts | 130° |
| 2026-05-04 20:29 | 19.49206 | -68.43668 | 39011 ft | 478 kts | 130° |
| 2026-05-04 20:29 | 19.45093 | -68.38120 | 38950 ft | 479 kts | 130° |
| 2026-05-04 20:30 | 19.40983 | -68.32582 | 38998 ft | 478 kts | 130° |
| 2026-05-04 20:30 | 19.36857 | -68.27028 | 39031 ft | 480 kts | 130° |
| 2026-05-04 20:31 | 19.32743 | -68.21496 | 39029 ft | 477 kts | 130° |
| 2026-05-04 20:31 | 19.28638 | -68.15977 | 39024 ft | 477 kts | 130° |
| 2026-05-04 20:32 | 19.24521 | -68.10448 | 38964 ft | 477 kts | 130° |
| 2026-05-04 20:32 | 19.20409 | -68.04934 | 39029 ft | 478 kts | 130° |
| 2026-05-04 20:33 | 19.16297 | -67.99422 | 39031 ft | 477 kts | 130° |
| 2026-05-04 20:33 | 19.12190 | -67.93924 | 39018 ft | 475 kts | 130° |
| 2026-05-04 20:34 | 19.08117 | -67.88476 | 39009 ft | 476 kts | 130° |
| 2026-05-04 20:34 | 19.04025 | -67.83003 | 39008 ft | 475 kts | 130° |
| 2026-05-04 20:35 | 18.99935 | -67.77533 | 39017 ft | 474 kts | 130° |
| 2026-05-04 20:35 | 18.95847 | -67.72065 | 39013 ft | 474 kts | 130° |
| 2026-05-04 20:36 | 18.91762 | -67.66604 | 39017 ft | 474 kts | 130° |
| 2026-05-04 20:36 | 18.87677 | -67.61148 | 39022 ft | 473 kts | 130° |
| 2026-05-04 20:37 | 18.83600 | -67.55708 | 39028 ft | 473 kts | 130° |
| 2026-05-04 20:37 | 18.79511 | -67.50255 | 39013 ft | 473 kts | 130° |
| 2026-05-04 20:38 | 18.75428 | -67.44818 | 39030 ft | 472 kts | 130° |
| 2026-05-04 20:38 | 18.71346 | -67.39385 | 39028 ft | 472 kts | 129° |
| 2026-05-04 20:39 | 18.67267 | -67.33962 | 39004 ft | 471 kts | 129° |
| 2026-05-04 20:39 | 18.63194 | -67.28550 | 39017 ft | 471 kts | 130° |
| 2026-05-04 20:40 | 18.59109 | -67.23128 | 38998 ft | 472 kts | 130° |
| 2026-05-04 20:40 | 18.55035 | -67.17725 | 39035 ft | 471 kts | 130° |
| 2026-05-04 20:41 | 18.50963 | -67.12328 | 39036 ft | 471 kts | 130° |
| 2026-05-04 20:41 | 18.48708 | -67.09846 | 38998 ft | 466 kts | 143° |
| 2026-05-04 20:41 | 18.46176 | -67.07729 | 39036 ft | 466 kts | 141° |
| 2026-05-04 20:42 | 18.41192 | -67.03343 | 39032 ft | 467 kts | 142° |
| 2026-05-04 20:42 | 18.36175 | -66.98988 | 39034 ft | 466 kts | 142° |
| 2026-05-04 20:43 | 18.31190 | -66.94670 | 39011 ft | 466 kts | 142° |
| 2026-05-04 20:43 | 18.26183 | -66.90337 | 39020 ft | 466 kts | 142° |
| 2026-05-04 20:44 | 18.21178 | -66.86008 | 39019 ft | 466 kts | 142° |
| 2026-05-04 20:44 | 18.16179 | -66.81687 | 39008 ft | 465 kts | 141° |
| 2026-05-04 20:45 | 18.11175 | -66.77367 | 39022 ft | 465 kts | 142° |
| 2026-05-04 20:45 | 18.06179 | -66.73056 | 39013 ft | 464 kts | 142° |
| 2026-05-04 20:46 | 18.01180 | -66.68749 | 39016 ft | 464 kts | 142° |
| 2026-05-04 20:46 | 17.96191 | -66.64448 | 39007 ft | 463 kts | 141° |
| 2026-05-04 20:47 | 17.91217 | -66.60165 | 39012 ft | 462 kts | 141° |
| 2026-05-04 20:47 | 17.86259 | -66.55899 | 39029 ft | 461 kts | 141° |
| 2026-05-04 20:48 | 17.81291 | -66.51627 | 39027 ft | 462 kts | 141° |
| 2026-05-04 20:48 | 17.76319 | -66.47356 | 38997 ft | 460 kts | 141° |
| 2026-05-04 20:49 | 17.71352 | -66.43094 | 39000 ft | 462 kts | 141° |
| 2026-05-04 20:49 | 17.66386 | -66.38834 | 39017 ft | 461 kts | 141° |
| 2026-05-04 20:50 | 17.61424 | -66.34581 | 39026 ft | 461 kts | 141° |
| 2026-05-04 20:50 | 17.56439 | -66.30310 | 38959 ft | 461 kts | 141° |
| 2026-05-04 20:51 | 17.51474 | -66.26063 | 39014 ft | 461 kts | 141° |
| 2026-05-04 20:51 | 17.46541 | -66.21844 | 39020 ft | 460 kts | 141° |
| 2026-05-04 20:52 | 17.41579 | -66.17604 | 39027 ft | 461 kts | 141° |
| 2026-05-04 20:52 | 17.36618 | -66.13368 | 39030 ft | 460 kts | 141° |
| 2026-05-04 20:53 | 17.31653 | -66.09131 | 39020 ft | 460 kts | 141° |
| 2026-05-04 20:53 | 17.26688 | -66.04895 | 39009 ft | 460 kts | 141° |
| 2026-05-04 20:54 | 17.21719 | -66.00661 | 39031 ft | 461 kts | 141° |
| 2026-05-04 20:54 | 17.16750 | -65.96430 | 39034 ft | 460 kts | 141° |
| 2026-05-04 20:55 | 17.11778 | -65.92198 | 39023 ft | 460 kts | 141° |
| 2026-05-04 20:55 | 17.06817 | -65.87981 | 39047 ft | 459 kts | 141° |
| 2026-05-04 20:56 | 17.01849 | -65.83760 | 38998 ft | 459 kts | 141° |
| 2026-05-04 20:56 | 16.96898 | -65.79557 | 39017 ft | 460 kts | 141° |
| 2026-05-04 20:57 | 16.91931 | -65.75344 | 38993 ft | 459 kts | 141° |
| 2026-05-04 20:57 | 16.86972 | -65.71137 | 39014 ft | 460 kts | 141° |
| 2026-05-04 20:58 | 16.82013 | -65.66933 | 39018 ft | 461 kts | 141° |
| 2026-05-04 20:58 | 16.77077 | -65.62754 | 39061 ft | 459 kts | 141° |
| 2026-05-04 20:59 | 16.72107 | -65.58549 | 39024 ft | 460 kts | 141° |
| 2026-05-04 20:59 | 16.67135 | -65.54345 | 39036 ft | 460 kts | 141° |
| 2026-05-04 21:00 | 16.62168 | -65.50146 | 39051 ft | 459 kts | 141° |
| 2026-05-04 21:00 | 16.57191 | -65.45944 | 39022 ft | 459 kts | 141° |
| 2026-05-04 21:01 | 16.52227 | -65.41756 | 39044 ft | 460 kts | 141° |
| 2026-05-04 21:01 | 16.47261 | -65.37569 | 39036 ft | 458 kts | 141° |
| 2026-05-04 21:02 | 16.42291 | -65.33381 | 39008 ft | 460 kts | 141° |
| 2026-05-04 21:02 | 16.37317 | -65.29192 | 39032 ft | 460 kts | 141° |
| 2026-05-04 21:03 | 16.32344 | -65.25003 | 39030 ft | 461 kts | 141° |
| 2026-05-04 21:03 | 16.27366 | -65.20817 | 39014 ft | 459 kts | 141° |
| 2026-05-04 21:04 | 16.22388 | -65.16636 | 39030 ft | 460 kts | 141° |
| 2026-05-04 21:04 | 16.18257 | -65.13165 | 39018 ft | 460 kts | 141° |
| 2026-05-04 21:05 | 16.13286 | -65.08991 | 39040 ft | 459 kts | 141° |
| 2026-05-04 21:05 | 16.08300 | -65.04810 | 39027 ft | 459 kts | 141° |
| 2026-05-04 21:06 | 16.03320 | -65.00634 | 39026 ft | 460 kts | 141° |
| 2026-05-04 21:06 | 15.98349 | -64.96469 | 39035 ft | 459 kts | 141° |
| 2026-05-04 21:07 | 15.93376 | -64.92306 | 39032 ft | 460 kts | 141° |
| 2026-05-04 21:07 | 15.88383 | -64.88130 | 39012 ft | 461 kts | 141° |
| 2026-05-04 21:08 | 15.83391 | -64.83957 | 39019 ft | 460 kts | 141° |
| 2026-05-04 21:08 | 15.78401 | -64.79785 | 39004 ft | 461 kts | 141° |
| 2026-05-04 21:09 | 15.73404 | -64.75612 | 39007 ft | 461 kts | 141° |
| 2026-05-04 21:09 | 15.68413 | -64.71447 | 39000 ft | 460 kts | 140° |
| 2026-05-04 21:10 | 15.63417 | -64.67280 | 39014 ft | 459 kts | 141° |
| 2026-05-04 21:10 | 15.58432 | -64.63127 | 39013 ft | 460 kts | 140° |
| 2026-05-04 21:11 | 15.53435 | -64.58962 | 38988 ft | 461 kts | 140° |
| 2026-05-04 21:11 | 15.48473 | -64.54834 | 39007 ft | 462 kts | 140° |
| 2026-05-04 21:12 | 15.43469 | -64.50672 | 39028 ft | 461 kts | 140° |
| 2026-05-04 21:12 | 15.38451 | -64.46501 | 39011 ft | 462 kts | 140° |
| 2026-05-04 21:13 | 15.33445 | -64.42343 | 39009 ft | 461 kts | 141° |
| 2026-05-04 21:13 | 15.28435 | -64.38183 | 39006 ft | 462 kts | 140° |
| 2026-05-04 21:14 | 15.23426 | -64.34026 | 38993 ft | 461 kts | 140° |
| 2026-05-04 21:14 | 15.18418 | -64.29874 | 39004 ft | 461 kts | 141° |
| 2026-05-04 21:15 | 15.13406 | -64.25728 | 39006 ft | 462 kts | 140° |
| 2026-05-04 21:15 | 15.08399 | -64.21575 | 39029 ft | 461 kts | 141° |
| 2026-05-04 21:16 | 15.03391 | -64.17428 | 39028 ft | 462 kts | 141° |
| 2026-05-04 21:16 | 14.98194 | -64.13519 | 39009 ft | 462 kts | 149° |
| 2026-05-04 21:17 | 14.92677 | -64.10081 | 39030 ft | 464 kts | 148° |
| 2026-05-04 21:17 | 14.87168 | -64.06658 | 39073 ft | 462 kts | 148° |
| 2026-05-04 21:18 | 14.81640 | -64.03230 | 39015 ft | 462 kts | 148° |
| 2026-05-04 21:18 | 14.76123 | -63.99808 | 38996 ft | 463 kts | 148° |
| 2026-05-04 21:19 | 14.70594 | -63.96383 | 39014 ft | 463 kts | 148° |
| 2026-05-04 21:19 | 14.65067 | -63.92961 | 38998 ft | 463 kts | 148° |
| 2026-05-04 21:20 | 14.59527 | -63.89533 | 38998 ft | 465 kts | 148° |
| 2026-05-04 21:20 | 14.53984 | -63.86102 | 39019 ft | 465 kts | 148° |
| 2026-05-04 21:21 | 14.48439 | -63.82678 | 39029 ft | 465 kts | 148° |
| 2026-05-04 21:21 | 14.42897 | -63.79256 | 39013 ft | 464 kts | 148° |
| 2026-05-04 21:22 | 14.37355 | -63.75834 | 39007 ft | 465 kts | 148° |
| 2026-05-04 21:22 | 14.31846 | -63.72435 | 39007 ft | 464 kts | 148° |
| 2026-05-04 21:23 | 14.26300 | -63.69017 | 39005 ft | 464 kts | 148° |
| 2026-05-04 21:23 | 14.20760 | -63.65601 | 39017 ft | 463 kts | 148° |
| 2026-05-04 21:24 | 14.15211 | -63.62184 | 39002 ft | 464 kts | 148° |
| 2026-05-04 21:24 | 14.09669 | -63.58773 | 38998 ft | 465 kts | 148° |
| 2026-05-04 21:25 | 14.04116 | -63.55362 | 39009 ft | 465 kts | 148° |
| 2026-05-04 21:25 | 13.98559 | -63.51948 | 38998 ft | 465 kts | 148° |
| 2026-05-04 21:26 | 13.93013 | -63.48542 | 38995 ft | 464 kts | 148° |
| 2026-05-04 21:26 | 13.87459 | -63.45134 | 39008 ft | 465 kts | 148° |
| 2026-05-04 21:27 | 13.81900 | -63.41724 | 39001 ft | 466 kts | 148° |
| 2026-05-04 21:27 | 13.76340 | -63.38316 | 39010 ft | 466 kts | 148° |
| 2026-05-04 21:28 | 13.70768 | -63.34903 | 39007 ft | 466 kts | 149° |
| 2026-05-04 21:28 | 13.65205 | -63.31497 | 39013 ft | 466 kts | 149° |
| 2026-05-04 21:29 | 13.59641 | -63.28092 | 39007 ft | 466 kts | 149° |
| 2026-05-04 21:29 | 13.54065 | -63.24682 | 38981 ft | 467 kts | 148° |
| 2026-05-04 21:30 | 13.48498 | -63.21279 | 38993 ft | 465 kts | 149° |
| 2026-05-04 21:30 | 13.42926 | -63.17876 | 38954 ft | 466 kts | 149° |
| 2026-05-04 21:31 | 13.34577 | -63.12779 | 38980 ft | 467 kts | 149° |
| 2026-05-04 21:32 | 13.28993 | -63.09371 | 38979 ft | 467 kts | 149° |
| 2026-05-04 21:32 | 13.23414 | -63.05968 | 38988 ft | 467 kts | 149° |
| 2026-05-04 21:33 | 13.17865 | -63.02584 | 38983 ft | 467 kts | 149° |
| 2026-05-04 21:33 | 13.12281 | -62.99181 | 38971 ft | 467 kts | 149° |
| 2026-05-04 21:34 | 13.06698 | -62.95783 | 38985 ft | 466 kts | 149° |
| 2026-05-04 21:34 | 13.01105 | -62.92378 | 38970 ft | 467 kts | 149° |
| 2026-05-04 21:35 | 12.95525 | -62.88983 | 38974 ft | 466 kts | 149° |
| 2026-05-04 21:35 | 12.89908 | -62.85566 | 38983 ft | 468 kts | 149° |
| 2026-05-04 21:36 | 12.84346 | -62.82186 | 38980 ft | 467 kts | 149° |
| 2026-05-04 21:36 | 12.78745 | -62.78786 | 38976 ft | 468 kts | 149° |
| 2026-05-04 21:37 | 12.73147 | -62.75384 | 38960 ft | 468 kts | 149° |
| 2026-05-04 21:37 | 12.67550 | -62.71988 | 38973 ft | 468 kts | 149° |
| 2026-05-04 21:38 | 12.61947 | -62.68589 | 38981 ft | 468 kts | 149° |
| 2026-05-04 21:38 | 12.56375 | -62.65212 | 38976 ft | 461 kts | 149° |
| 2026-05-04 21:39 | 12.50858 | -62.61870 | 38978 ft | 461 kts | 149° |
| 2026-05-04 21:39 | 12.45340 | -62.58528 | 38977 ft | 461 kts | 149° |
| 2026-05-04 21:40 | 12.39821 | -62.55189 | 38959 ft | 460 kts | 149° |
| 2026-05-04 21:40 | 12.34304 | -62.51847 | 38911 ft | 461 kts | 149° |
| 2026-05-04 21:40 | 12.31558 | -62.50187 | 37952 ft | 460 kts | 149° |
| 2026-05-04 21:41 | 12.28796 | -62.48520 | 36989 ft | 460 kts | 150° |
| 2026-05-04 21:41 | 12.26044 | -62.46856 | 36069 ft | 460 kts | 150° |
| 2026-05-04 21:41 | 12.23292 | -62.45192 | 35055 ft | 460 kts | 150° |
| 2026-05-04 21:41 | 12.20531 | -62.43524 | 34099 ft | 460 kts | 150° |
| 2026-05-04 21:42 | 12.17775 | -62.41859 | 33173 ft | 460 kts | 150° |
| 2026-05-04 21:42 | 12.15024 | -62.40199 | 32266 ft | 458 kts | 151° |
| 2026-05-04 21:42 | 12.12253 | -62.38526 | 31388 ft | 456 kts | 151° |
| 2026-05-04 21:42 | 12.09528 | -62.36881 | 30485 ft | 454 kts | 151° |
| 2026-05-04 21:43 | 12.06815 | -62.35243 | 29595 ft | 452 kts | 152° |
| 2026-05-04 21:43 | 12.04150 | -62.33635 | 28752 ft | 449 kts | 151° |
| 2026-05-04 21:43 | 12.01474 | -62.32022 | 27868 ft | 446 kts | 151° |
| 2026-05-04 21:43 | 11.98815 | -62.30417 | 27039 ft | 441 kts | 151° |
| 2026-05-04 21:44 | 11.96188 | -62.28834 | 26529 ft | 435 kts | 151° |
| 2026-05-04 21:44 | 11.93590 | -62.27268 | 26081 ft | 432 kts | 151° |
| 2026-05-04 21:44 | 11.91015 | -62.25717 | 25623 ft | 427 kts | 151° |
| 2026-05-04 21:44 | 11.88471 | -62.24183 | 25191 ft | 423 kts | 151° |
| 2026-05-04 21:45 | 11.85946 | -62.22663 | 24734 ft | 420 kts | 150° |
| 2026-05-04 21:45 | 11.83443 | -62.21155 | 24283 ft | 416 kts | 150° |
| 2026-05-04 21:45 | 11.80958 | -62.19659 | 23842 ft | 413 kts | 150° |
| 2026-05-04 21:45 | 11.78491 | -62.18174 | 23318 ft | 411 kts | 150° |
| 2026-05-04 21:46 | 11.76036 | -62.16696 | 22879 ft | 408 kts | 150° |
| 2026-05-04 21:46 | 11.73612 | -62.15237 | 22513 ft | 402 kts | 150° |
| 2026-05-04 21:46 | 11.71209 | -62.13794 | 22069 ft | 399 kts | 149° |
| 2026-05-04 21:46 | 11.68827 | -62.12359 | 21650 ft | 396 kts | 149° |
| 2026-05-04 21:47 | 11.66466 | -62.10938 | 21244 ft | 392 kts | 149° |
| 2026-05-04 21:47 | 11.64124 | -62.09530 | 20832 ft | 389 kts | 149° |
| 2026-05-04 21:47 | 11.61798 | -62.08131 | 20416 ft | 386 kts | 149° |
| 2026-05-04 21:47 | 11.59501 | -62.06750 | 20016 ft | 384 kts | 148° |
| 2026-05-04 21:48 | 11.57200 | -62.05367 | 19596 ft | 381 kts | 148° |
| 2026-05-04 21:48 | 11.54925 | -62.03999 | 19199 ft | 378 kts | 148° |
| 2026-05-04 21:48 | 11.52665 | -62.02642 | 18790 ft | 376 kts | 148° |
| 2026-05-04 21:48 | 11.50425 | -62.01297 | 18391 ft | 372 kts | 148° |
| 2026-05-04 21:49 | 11.48200 | -61.99961 | 17984 ft | 370 kts | 147° |
| 2026-05-04 21:49 | 11.45996 | -61.98637 | 17597 ft | 366 kts | 147° |
| 2026-05-04 21:49 | 11.43824 | -61.97333 | 17209 ft | 356 kts | 147° |
| 2026-05-04 21:49 | 11.41726 | -61.96074 | 16846 ft | 346 kts | 147° |
| 2026-05-04 21:50 | 11.39664 | -61.94839 | 16469 ft | 343 kts | 147° |
| 2026-05-04 21:50 | 11.38280 | -61.94007 | 16218 ft | 341 kts | 147° |
| 2026-05-04 21:50 | 11.35590 | -61.92393 | 15733 ft | 337 kts | 147° |
| 2026-05-04 21:50 | 11.34228 | -61.91576 | 15490 ft | 336 kts | 147° |
| 2026-05-04 21:51 | 11.32225 | -61.90374 | 15118 ft | 332 kts | 147° |
| 2026-05-04 21:51 | 11.30242 | -61.89186 | 14758 ft | 330 kts | 147° |
| 2026-05-04 21:51 | 11.28278 | -61.88007 | 14443 ft | 326 kts | 147° |
| 2026-05-04 21:51 | 11.26328 | -61.86831 | 14043 ft | 326 kts | 146° |
| 2026-05-04 21:52 | 11.24381 | -61.85641 | 13633 ft | 326 kts | 147° |
| 2026-05-04 21:52 | 11.22446 | -61.84462 | 13288 ft | 323 kts | 147° |
| 2026-05-04 21:52 | 11.20534 | -61.83296 | 12963 ft | 319 kts | 147° |
| 2026-05-04 21:52 | 11.18640 | -61.82144 | 12682 ft | 314 kts | 147° |
| 2026-05-04 21:53 | 11.16769 | -61.81004 | 12331 ft | 312 kts | 147° |
| 2026-05-04 21:53 | 11.14915 | -61.79875 | 11954 ft | 310 kts | 147° |
| 2026-05-04 21:53 | 11.13069 | -61.78751 | 11600 ft | 308 kts | 147° |
| 2026-05-04 21:53 | 11.11238 | -61.77637 | 11265 ft | 305 kts | 147° |
| 2026-05-04 21:54 | 11.09443 | -61.76545 | 10915 ft | 303 kts | 147° |
| 2026-05-04 21:54 | 11.07617 | -61.75434 | 10591 ft | 301 kts | 147° |
| 2026-05-04 21:54 | 11.05829 | -61.74345 | 10276 ft | 298 kts | 147° |
| 2026-05-04 21:54 | 11.04082 | -61.73282 | 9937 ft | 296 kts | 147° |
| 2026-05-04 21:55 | 11.02316 | -61.72210 | 9582 ft | 294 kts | 147° |
| 2026-05-04 21:55 | 11.00562 | -61.71142 | 9277 ft | 292 kts | 147° |
| 2026-05-04 21:55 | 10.98841 | -61.70096 | 9095 ft | 284 kts | 147° |
| 2026-05-04 21:55 | 10.97168 | -61.69080 | 8926 ft | 276 kts | 147° |
| 2026-05-04 21:56 | 10.95550 | -61.68096 | 8668 ft | 266 kts | 147° |
| 2026-05-04 21:56 | 10.93975 | -61.67137 | 8400 ft | 262 kts | 147° |
| 2026-05-04 21:56 | 10.92421 | -61.66194 | 8089 ft | 260 kts | 147° |
| 2026-05-04 21:56 | 10.90873 | -61.65252 | 7765 ft | 258 kts | 147° |
| 2026-05-04 21:57 | 10.89332 | -61.64318 | 7490 ft | 257 kts | 147° |
| 2026-05-04 21:57 | 10.87804 | -61.63391 | 7214 ft | 255 kts | 146° |
| 2026-05-04 21:57 | 10.86292 | -61.62470 | 6927 ft | 253 kts | 146° |
| 2026-05-04 21:57 | 10.84786 | -61.61556 | 6655 ft | 251 kts | 146° |
| 2026-05-04 21:58 | 10.83298 | -61.60650 | 6391 ft | 248 kts | 146° |
| 2026-05-04 21:58 | 10.81821 | -61.59754 | 6061 ft | 248 kts | 146° |
| 2026-05-04 21:58 | 10.80338 | -61.58854 | 5770 ft | 247 kts | 146° |
| 2026-05-04 21:58 | 10.78884 | -61.57973 | 5520 ft | 238 kts | 146° |
| 2026-05-04 21:59 | 10.77470 | -61.57116 | 5285 ft | 234 kts | 146° |
| 2026-05-04 21:59 | 10.76083 | -61.56270 | 4976 ft | 235 kts | 146° |
| 2026-05-04 21:59 | 10.74694 | -61.55419 | 4777 ft | 230 kts | 146° |
| 2026-05-04 21:59 | 10.73326 | -61.54593 | 4448 ft | 228 kts | 146° |
| 2026-05-04 22:00 | 10.71962 | -61.53771 | 4144 ft | 227 kts | 146° |
| 2026-05-04 22:00 | 10.70625 | -61.52955 | 3959 ft | 219 kts | 146° |
| 2026-05-04 22:00 | 10.69232 | -61.52439 | 3895 ft | 212 kts | 170° |
| 2026-05-04 22:00 | 10.67779 | -61.52373 | 3600 ft | 210 kts | 173° |
| 2026-05-04 22:01 | 10.66324 | -61.52335 | 3261 ft | 206 kts | 174° |
| 2026-05-04 22:01 | 10.64899 | -61.52313 | 2856 ft | 201 kts | 175° |
| 2026-05-04 22:01 | 10.63535 | -61.52298 | 2662 ft | 192 kts | 174° |
| 2026-05-04 22:01 | 10.62248 | -61.52289 | 2609 ft | 177 kts | 172° |
| 2026-05-04 22:02 | 10.61081 | -61.52205 | 2558 ft | 160 kts | 155° |
| 2026-05-04 22:02 | 10.60229 | -61.51582 | 2515 ft | 149 kts | 123° |
| 2026-05-04 22:02 | 10.59770 | -61.50638 | 2588 ft | 151 kts | 106° |
| 2026-05-04 22:02 | 10.59565 | -61.49579 | 2640 ft | 154 kts | 96° |
| 2026-05-04 22:03 | 10.59513 | -61.48473 | 2491 ft | 160 kts | 92° |
| 2026-05-04 22:03 | 10.59495 | -61.47371 | 2358 ft | 157 kts | 91° |
| 2026-05-04 22:03 | 10.59494 | -61.46265 | 2157 ft | 154 kts | 91° |
| 2026-05-04 22:03 | 10.59498 | -61.45165 | 2000 ft | 157 kts | 91° |
| 2026-05-04 22:04 | 10.59504 | -61.44055 | 1812 ft | 158 kts | 91° |
| 2026-05-04 22:04 | 10.59506 | -61.42942 | 1561 ft | 154 kts | 91° |
| 2026-05-04 22:04 | 10.59510 | -61.41875 | 1355 ft | 149 kts | 91° |
| 2026-05-04 22:04 | 10.59516 | -61.40834 | 1166 ft | 148 kts | 91° |
| 2026-05-04 22:05 | 10.59518 | -61.39785 | 978 ft | 148 kts | 91° |
| 2026-05-04 22:05 | 10.59521 | -61.38741 | 775 ft | 148 kts | 91° |
| 2026-05-04 22:05 | 10.59519 | -61.37694 | 548 ft | 149 kts | 90° |
| 2026-05-04 22:05 | 10.59526 | -61.36635 | 359 ft | 151 kts | 90° |
| 2026-05-04 22:06 | 10.59533 | -61.35572 | 161 ft | 150 kts | 90° |
| 2026-05-04 22:06 | 10.59533 | -61.34548 | 52 ft | 127 kts | 90° |
| 2026-05-04 22:06 | 10.59536 | -61.33908 | 51 ft | 64 kts | 90° |
| 2026-05-04 22:06 | 10.59579 | -61.33534 | 51 ft | 40 kts | 63° |
| 2026-05-04 22:07 | 10.59700 | -61.33460 | 52 ft | 17 kts | 315° |
| 2026-05-04 22:07 | 10.59709 | -61.33580 | 52 ft | 18 kts | 267° |
| 2026-05-04 22:07 | 10.59713 | -61.33708 | 50 ft | 18 kts | 298° |
| 2026-05-04 22:07 | 10.59828 | -61.33754 | 52 ft | 19 kts | 318° |
| 2026-05-04 22:08 | 10.59835 | -61.33863 | 49 ft | 16 kts | 269° |
| 2026-05-04 22:08 | 10.59878 | -61.33920 | 48 ft | 12 kts | 8° |
| 2026-05-04 22:08 | 10.59941 | -61.33908 | 52 ft | 3 kts | 12° |
| 2026-05-04 22:08 | 10.59958 | -61.33905 | 52 ft | 0 kts | 11° |